Time;durP1;ratioP1;P1;durP2;ratioP2;P2;SDS_P1;SDS_P2;PMS_P1;PMS_P2;Temp;Humidity;BMP_temperature;BMP_pressure;BME280_temperature;BME280_humidity;BME280_pressure;Samples;Min_cycle;Max_cycle;Signal;HPM_P1;HPM_P2
2022/03/17 00:01:16;;;;;;;43.63;29.15;;;9.20;58.30;;;;;;4955046;28;20070;-75
2022/03/17 00:03:42;;;;;;;49.03;32.53;;;9.20;58.30;;;;;;4954983;28;20023;-75
2022/03/17 00:06:11;;;;;;;51.75;33.72;;;9.30;58.30;;;;;;4954618;28;20038;-75
2022/03/17 00:08:38;;;;;;;50.45;33.25;;;9.30;58.20;;;;;;4954945;28;20425;-75
2022/03/17 00:11:03;;;;;;;47.25;33.05;;;9.40;58.30;;;;;;4954829;28;20024;-75
2022/03/17 00:13:30;;;;;;;50.70;33.13;;;9.40;58.20;;;;;;4954988;28;20292;-75
2022/03/17 00:15:56;;;;;;;49.40;33.38;;;9.40;58.20;;;;;;4954475;28;20684;-75
2022/03/17 00:18:22;;;;;;;47.00;33.28;;;9.50;58.20;;;;;;4954668;28;20026;-75
2022/03/17 00:20:48;;;;;;;52.35;34.70;;;9.50;58.70;;;;;;4969306;28;20059;-75
2022/03/17 00:23:14;;;;;;;52.83;35.25;;;9.60;58.10;;;;;;4954782;29;20102;-75
2022/03/17 00:25:40;;;;;;;53.10;33.10;;;9.60;58.00;;;;;;4954536;29;20061;-75
2022/03/17 00:28:06;;;;;;;49.78;34.60;;;9.60;57.90;;;;;;4969025;28;20502;-75
2022/03/17 00:30:31;;;;;;;53.35;34.00;;;9.70;57.90;;;;;;4954425;28;20059;-75
2022/03/17 00:32:57;;;;;;;51.55;34.90;;;9.70;57.80;;;;;;4954722;28;20033;-76
2022/03/17 00:35:35;;;;;;;47.72;32.85;;;9.70;57.80;;;;;;4954334;28;20039;-75
2022/03/17 00:38:08;;;;;;;48.53;33.47;;;9.80;57.70;;;;;;4954676;28;20492;-75
2022/03/17 00:40:36;;;;;;;49.88;32.72;;;9.80;57.60;;;;;;4955002;28;20393;-75
2022/03/17 00:43:05;;;;;;;52.05;33.35;;;9.80;57.50;;;;;;4953387;29;20454;-75
2022/03/17 00:45:31;;;;;;;52.17;33.33;;;9.80;57.40;;;;;;4954563;28;20492;-75
2022/03/17 00:47:57;;;;;;;44.72;30.52;;;9.80;57.40;;;;;;4954604;28;20046;-75
2022/03/17 00:50:23;;;;;;;46.40;31.10;;;9.90;57.30;;;;;;4954157;28;20031;-75
2022/03/17 00:52:49;;;;;;;48.97;31.38;;;9.90;57.20;;;;;;4954464;28;20027;-75
2022/03/17 00:55:14;;;;;;;49.30;31.92;;;9.90;57.00;;;;;;4954506;28;20440;-76
2022/03/17 00:57:41;;;;;;;49.42;31.88;;;9.90;57.00;;;;;;4969187;28;20493;-76
2022/03/17 01:00:14;;;;;;;48.30;30.92;;;9.90;57.00;;;;;;4954482;28;20397;-75
2022/03/17 01:02:41;;;;;;;44.47;30.67;;;9.90;57.00;;;;;;4954466;29;20083;-75
2022/03/17 01:05:07;;;;;;;45.42;30.58;;;9.90;57.00;;;;;;4954095;28;20027;-75
2022/03/17 01:07:33;;;;;;;47.70;31.65;;;9.90;57.00;;;;;;4954371;28;20024;-75
2022/03/17 01:09:59;;;;;;;49.90;33.25;;;9.90;57.00;;;;;;4954076;28;20020;-75
2022/03/17 01:12:25;;;;;;;54.30;34.30;;;9.90;57.60;;;;;;4953055;29;20484;-75
2022/03/17 01:14:50;;;;;;;51.72;34.53;;;9.90;57.00;;;;;;4954229;28;20051;-75
2022/03/17 01:17:16;;;;;;;49.65;33.53;;;9.90;57.10;;;;;;4954229;29;20089;-76
2022/03/17 01:19:43;;;;;;;81.70;32.90;;;9.90;57.00;;;;;;4954374;29;20031;-75
2022/03/17 01:22:08;;;;;;;54.20;34.25;;;9.90;57.00;;;;;;4968939;28;20082;-75
2022/03/17 01:24:34;;;;;;;52.70;34.15;;;9.90;57.00;;;;;;4953377;29;20470;-75
2022/03/17 01:27:00;;;;;;;56.67;35.50;;;9.90;57.00;;;;;;4952954;29;20027;-75
2022/03/17 01:29:26;;;;;;;57.15;35.35;;;9.90;57.00;;;;;;4952937;29;20035;-75
2022/03/17 01:31:52;;;;;;;47.97;32.58;;;10.00;57.10;;;;;;4954193;28;20102;-75
2022/03/17 01:34:19;;;;;;;51.10;33.38;;;10.00;57.00;;;;;;4954142;28;20031;-75
2022/03/17 01:36:45;;;;;;;49.45;32.97;;;10.00;56.90;;;;;;4954116;28;20474;-75
2022/03/17 01:39:10;;;;;;;51.80;31.67;;;10.00;56.80;;;;;;4953827;28;20397;-75
2022/03/17 01:41:38;;;;;;;48.00;31.85;;;10.00;56.80;;;;;;4972056;28;20023;-76
2022/03/17 01:44:04;;;;;;;51.03;35.35;;;10.00;56.70;;;;;;4957666;28;20106;-75
2022/03/17 01:47:26;;;;;;;51.22;33.05;;;10.10;56.70;;;;;;4972369;28;20465;-75
2022/03/17 01:49:15;;;;;;;51.40;32.72;;;10.10;56.70;;;;;;4957483;28;20034;-75
2022/03/17 01:51:42;;;;;;;50.65;34.17;;;10.10;56.60;;;;;;4956164;28;20027;-75
2022/03/17 01:54:07;;;;;;;50.88;32.50;;;10.10;56.60;;;;;;4957237;28;20030;-75
2022/03/17 01:56:33;;;;;;;48.63;32.60;;;10.10;56.60;;;;;;4957281;28;20034;-75
2022/03/17 01:58:59;;;;;;;47.70;32.92;;;10.10;56.50;;;;;;4955971;29;20527;-75
2022/03/17 02:01:25;;;;;;;55.13;35.38;;;10.10;56.50;;;;;;4956178;29;20359;-76
2022/03/17 02:03:52;;;;;;;48.47;32.28;;;10.10;56.40;;;;;;4957164;28;20409;-76
2022/03/17 02:06:18;;;;;;;54.67;35.13;;;10.10;56.40;;;;;;4957285;28;20042;-76
2022/03/17 02:08:44;;;;;;;53.50;34.28;;;10.10;56.40;;;;;;4957244;28;20477;-76
2022/03/17 02:13:54;;;;;;;55.50;35.45;;;10.10;56.30;;;;;;4957433;29;20170;-75
2022/03/17 02:16:20;;;;;;;48.90;32.58;;;10.10;56.20;;;;;;4955950;29;20109;-75
2022/03/17 02:18:46;;;;;;;53.05;33.88;;;10.20;56.20;;;;;;4968955;28;20385;-75
2022/03/17 02:21:12;;;;;;;47.70;31.77;;;10.20;56.10;;;;;;4956964;28;20064;-75
2022/03/17 02:26:38;;;;;;;45.45;30.88;;;10.20;56.00;;;;;;4955513;28;20027;-75
2022/03/17 02:29:04;;;;;;;51.47;34.65;;;10.30;55.90;;;;;;4956802;28;20049;-75
2022/03/17 02:31:31;;;;;;;48.60;31.17;;;10.30;55.90;;;;;;4956812;28;20102;-75
2022/03/17 02:33:57;;;;;;;47.10;30.42;;;10.30;56.00;;;;;;4971432;28;20027;-75
2022/03/17 02:36:24;;;;;;;46.88;31.55;;;10.30;55.90;;;;;;4956705;28;20495;-75
2022/03/17 02:38:50;;;;;;;46.05;30.33;;;10.30;55.80;;;;;;4956737;28;20026;-75
2022/03/17 02:41:22;;;;;;;51.30;32.78;;;10.30;55.80;;;;;;4956701;28;20069;-75
2022/03/17 02:43:54;;;;;;;56.95;33.60;;;10.30;55.80;;;;;;4956308;28;20024;-75
2022/03/17 02:46:21;;;;;;;46.70;31.77;;;10.30;55.80;;;;;;4955985;28;20031;-76
2022/03/17 02:48:47;;;;;;;55.70;32.38;;;10.30;55.80;;;;;;4956242;29;20030;-75
2022/03/17 02:51:13;;;;;;;48.10;30.98;;;10.30;55.80;;;;;;4955870;28;20489;-75
2022/03/17 02:53:38;;;;;;;49.25;32.60;;;10.30;55.80;;;;;;4956145;28;20118;-75
2022/03/17 02:56:04;;;;;;;53.03;33.97;;;10.30;55.80;;;;;;4956311;28;20485;-75
2022/03/17 02:58:34;;;;;;;50.92;34.03;;;10.30;55.70;;;;;;4956201;28;20043;-75
2022/03/17 03:01:00;;;;;;;50.88;33.50;;;10.30;55.70;;;;;;4956192;28;20452;-75
2022/03/17 03:03:26;;;;;;;52.72;32.80;;;10.30;55.80;;;;;;4955946;28;20106;-75
2022/03/17 03:05:52;;;;;;;47.92;31.48;;;10.30;55.80;;;;;;4954597;29;20031;-75
2022/03/17 03:08:17;;;;;;;51.92;34.25;;;10.30;55.90;;;;;;4971211;28;20031;-75
2022/03/17 03:10:44;;;;;;;49.53;33.22;;;10.30;55.80;;;;;;4970901;28;20031;-75
2022/03/17 03:13:10;;;;;;;45.95;31.13;;;10.30;55.80;;;;;;4956042;28;20393;-75
2022/03/17 03:15:36;;;;;;;49.08;33.63;;;10.30;55.80;;;;;;4955830;28;20031;-75
2022/03/17 03:18:02;;;;;;;48.72;33.83;;;10.30;55.80;;;;;;4955972;29;20055;-75
2022/03/17 03:20:28;;;;;;;54.83;36.10;;;10.30;55.80;;;;;;4955650;28;20062;-75
2022/03/17 03:22:54;;;;;;;50.63;32.58;;;10.30;55.80;;;;;;4955901;28;20027;-75
2022/03/17 03:25:20;;;;;;;46.28;31.33;;;10.30;55.80;;;;;;4955825;28;20035;-75
2022/03/17 03:27:45;;;;;;;48.75;31.60;;;10.30;55.80;;;;;;4955698;28;20019;-75
2022/03/17 03:30:13;;;;;;;47.83;31.50;;;10.30;55.70;;;;;;4955767;28;20027;-75
2022/03/17 03:32:40;;;;;;;48.00;31.88;;;10.30;55.70;;;;;;4955534;29;20031;-75
2022/03/17 03:37:51;;;;;;;45.67;30.92;;;10.30;55.70;;;;;;4955416;29;20082;-76
2022/03/17 03:40:17;;;;;;;55.10;32.63;;;10.30;55.70;;;;;;4954263;29;20473;-75
2022/03/17 03:42:43;;;;;;;51.05;33.17;;;10.20;55.70;;;;;;4955509;28;20023;-75
2022/03/17 03:45:09;;;;;;;52.20;34.42;;;10.20;55.70;;;;;;4955244;28;20086;-76
2022/03/17 03:47:35;;;;;;;49.83;32.53;;;10.20;55.70;;;;;;4955426;28;20024;-76
2022/03/17 03:50:02;;;;;;;49.63;34.13;;;10.20;55.80;;;;;;4955089;28;20124;-75
2022/03/17 03:52:27;;;;;;;51.35;34.20;;;10.20;55.80;;;;;;4970046;28;20366;-75
2022/03/17 03:54:53;;;;;;;58.38;37.47;;;10.20;55.80;;;;;;4970042;28;20035;-75
2022/03/17 03:57:19;;;;;;;57.78;37.08;;;10.20;55.80;;;;;;4970052;28;20031;-75
2022/03/17 03:59:45;;;;;;;50.90;33.20;;;10.20;55.70;;;;;;4955417;28;20547;-75
2022/03/17 04:02:10;;;;;;;56.67;36.20;;;10.20;55.70;;;;;;4955271;28;20062;-75
2022/03/17 04:04:41;;;;;;;54.10;35.42;;;10.20;55.70;;;;;;4954868;28;20102;-75
2022/03/17 04:07:09;;;;;;;51.80;33.05;;;10.20;55.60;;;;;;4955303;28;20055;-75
2022/03/17 04:09:39;;;;;;;48.47;32.83;;;10.20;55.60;;;;;;4959157;28;20027;-76
2022/03/17 04:12:08;;;;;;;55.55;34.03;;;10.20;55.50;;;;;;4964347;28;20031;-76
2022/03/17 04:14:34;;;;;;;54.00;33.72;;;10.20;55.50;;;;;;4963495;28;20027;-75
2022/03/17 04:17:00;;;;;;;49.53;32.63;;;10.20;55.40;;;;;;4945796;29;20059;-75
2022/03/17 04:19:26;;;;;;;52.55;34.20;;;10.20;55.40;;;;;;4948887;29;20019;-75
2022/03/17 04:21:52;;;;;;;49.25;31.38;;;10.20;55.30;;;;;;4952722;29;20397;-75
2022/03/17 04:24:19;;;;;;;46.13;30.70;;;10.20;55.30;;;;;;4954672;29;20027;-75
2022/03/17 04:26:46;;;;;;;48.17;30.58;;;10.20;55.20;;;;;;4954704;28;20027;-75
2022/03/17 04:29:12;;;;;;;38.90;26.55;;;10.20;55.20;;;;;;4954760;28;20381;-75
2022/03/17 04:31:40;;;;;;;46.63;30.45;;;10.20;55.10;;;;;;4954757;28;20023;-76
2022/03/17 04:34:07;;;;;;;42.13;27.67;;;10.20;55.10;;;;;;4969429;28;20359;-75
2022/03/17 04:36:32;;;;;;;38.30;26.20;;;10.20;55.10;;;;;;4954726;28;20117;-75
2022/03/17 04:39:00;;;;;;;41.58;26.77;;;10.10;55.00;;;;;;4954801;28;20482;-75
2022/03/17 04:41:25;;;;;;;41.33;28.02;;;10.10;55.00;;;;;;4954494;28;20039;-75
2022/03/17 04:43:51;;;;;;;53.83;30.38;;;10.10;55.10;;;;;;4954718;29;20024;-75
2022/03/17 04:46:17;;;;;;;47.20;30.38;;;10.10;55.10;;;;;;4954353;29;20478;-75
2022/03/17 04:48:43;;;;;;;47.55;29.23;;;10.10;55.10;;;;;;4954317;28;20023;-75
2022/03/17 04:51:09;;;;;;;51.50;29.63;;;10.10;55.10;;;;;;4954590;28;20477;-75
2022/03/17 04:53:35;;;;;;;48.42;30.17;;;10.00;55.00;;;;;;4954726;28;20470;-75
2022/03/17 04:56:10;;;;;;;45.53;30.45;;;10.10;55.00;;;;;;4954544;28;20027;-75
2022/03/17 04:58:43;;;;;;;48.28;29.35;;;10.00;54.90;;;;;;4954221;28;20075;-75
2022/03/17 05:01:10;;;;;;;39.78;27.20;;;10.00;54.90;;;;;;4954576;28;20047;-75
2022/03/17 05:03:37;;;;;;;47.08;28.42;;;10.00;54.90;;;;;;4954181;28;20027;-75
2022/03/17 05:06:03;;;;;;;44.33;29.90;;;10.00;55.20;;;;;;4953254;29;20039;-75
2022/03/17 05:08:29;;;;;;;44.97;29.23;;;10.10;55.00;;;;;;4954284;28;20036;-76
2022/03/17 05:10:57;;;;;;;44.65;29.10;;;10.10;55.00;;;;;;4954682;28;20070;-75
2022/03/17 05:13:23;;;;;;;46.88;30.20;;;10.10;55.00;;;;;;4953828;28;20752;-75
2022/03/17 05:15:51;;;;;;;46.38;28.23;;;10.10;54.80;;;;;;4955130;28;20031;-75
2022/03/17 05:18:18;;;;;;;43.35;28.75;;;10.10;54.70;;;;;;4959800;28;20422;-75
2022/03/17 05:20:43;;;;;;;44.25;28.25;;;10.20;54.60;;;;;;4957889;28;20027;-75
2022/03/17 05:23:14;;;;;;;47.92;29.15;;;10.20;54.40;;;;;;4956258;29;20035;-75
2022/03/17 05:25:42;;;;;;;46.85;29.52;;;10.20;54.20;;;;;;4957867;28;20110;-75
2022/03/17 05:28:08;;;;;;;51.10;28.65;;;10.20;54.10;;;;;;4972625;28;20450;-75
2022/03/17 05:30:35;;;;;;;41.05;25.85;;;10.20;54.00;;;;;;4957988;28;20397;-75
2022/03/17 05:33:02;;;;;;;41.83;26.08;;;10.20;54.00;;;;;;4957800;29;20388;-75
2022/03/17 05:35:29;;;;;;;38.55;24.88;;;10.30;54.00;;;;;;4957997;28;20389;-76
2022/03/17 05:37:54;;;;;;;45.05;25.63;;;10.30;54.00;;;;;;4971106;28;20062;-75
2022/03/17 05:40:23;;;;;;;38.72;25.85;;;10.30;54.00;;;;;;4972235;28;20455;-75
2022/03/17 05:42:52;;;;;;;44.58;26.88;;;10.30;53.90;;;;;;4957866;28;20031;-75
2022/03/17 05:45:18;;;;;;;44.58;28.38;;;10.30;53.80;;;;;;4956642;29;20026;-75
2022/03/17 05:47:47;;;;;;;46.03;28.38;;;10.30;53.80;;;;;;4957572;28;20028;-75
2022/03/17 05:50:17;;;;;;;42.33;27.73;;;10.30;53.80;;;;;;4957705;28;20385;-75
2022/03/17 05:52:44;;;;;;;44.88;27.15;;;10.30;53.80;;;;;;4955175;28;20470;-75
2022/03/17 05:55:18;;;;;;;38.03;25.65;;;10.40;53.80;;;;;;4957595;28;20078;-75
2022/03/17 05:57:47;;;;;;;44.00;27.15;;;10.40;53.80;;;;;;4963360;28;20038;-75
2022/03/17 06:00:16;;;;;;;44.42;27.77;;;10.40;53.70;;;;;;4976859;28;20022;-75
2022/03/17 06:02:42;;;;;;;41.35;26.05;;;10.50;53.50;;;;;;4971273;28;20027;-75
2022/03/17 06:05:09;;;;;;;42.92;26.48;;;10.50;53.60;;;;;;4968789;28;20311;-75
2022/03/17 06:07:46;;;;;;;43.75;26.98;;;10.50;53.50;;;;;;4957351;28;20055;-75
2022/03/17 06:10:14;;;;;;;46.83;30.63;;;10.60;53.60;;;;;;4965928;28;20023;-75
2022/03/17 06:12:41;;;;;;;54.15;33.13;;;10.60;53.70;;;;;;4966300;28;20380;-75
2022/03/17 06:15:07;;;;;;;56.50;31.50;;;10.60;53.80;;;;;;4957356;28;20033;-75
2022/03/17 06:17:44;;;;;;;51.35;30.80;;;10.70;53.90;;;;;;4955875;29;20110;-75
2022/03/17 06:20:12;;;;;;;55.72;32.78;;;10.70;53.80;;;;;;4957147;28;20027;-75
2022/03/17 06:22:43;;;;;;;60.05;33.25;;;10.70;53.80;;;;;;4966470;28;20429;-75
2022/03/17 06:25:11;;;;;;;64.10;35.40;;;10.80;53.70;;;;;;4976446;28;20023;-75
2022/03/17 06:27:38;;;;;;;54.30;33.35;;;10.80;53.70;;;;;;4964881;28;20425;-75
2022/03/17 06:30:06;;;;;;;65.70;35.00;;;10.90;53.80;;;;;;4956950;28;20095;-75
2022/03/17 06:32:34;;;;;;;63.08;35.05;;;10.90;53.80;;;;;;4956768;28;20031;-75
2022/03/17 06:35:00;;;;;;;58.70;33.72;;;11.00;53.70;;;;;;4957083;28;20039;-75
2022/03/17 06:37:26;;;;;;;60.13;34.65;;;11.00;53.70;;;;;;4955674;29;20485;-75
2022/03/17 06:39:53;;;;;;;60.45;35.67;;;11.10;53.80;;;;;;4957032;28;20030;-75
2022/03/17 06:42:21;;;;;;;58.67;35.70;;;11.10;53.80;;;;;;4962257;28;20504;-76
2022/03/17 06:44:47;;;;;;;67.40;39.03;;;11.20;53.70;;;;;;4956826;28;20042;-75
2022/03/17 06:47:12;;;;;;;57.67;37.65;;;11.30;53.70;;;;;;4962758;28;20026;-75
2022/03/17 06:49:38;;;;;;;59.60;34.72;;;11.30;53.60;;;;;;4979455;28;20130;-75
2022/03/17 06:52:04;;;;;;;56.20;33.38;;;11.40;53.60;;;;;;4966674;28;20172;-75
2022/03/17 06:54:30;;;;;;;53.35;32.95;;;11.40;53.50;;;;;;4967658;28;20113;-75
2022/03/17 06:56:56;;;;;;;54.47;34.10;;;11.50;53.40;;;;;;4972988;28;20115;-75
2022/03/17 06:59:22;;;;;;;62.22;37.50;;;11.60;53.30;;;;;;4990573;28;20062;-75
2022/03/17 07:01:47;;;;;;;72.30;41.70;;;11.70;53.10;;;;;;4975754;28;20027;-75
2022/03/17 07:04:13;;;;;;;60.80;38.75;;;11.70;53.00;;;;;;4964807;28;20102;-75
2022/03/17 07:06:39;;;;;;;58.55;38.22;;;11.80;53.00;;;;;;4956367;29;20024;-75
2022/03/17 07:09:05;;;;;;;63.70;40.65;;;11.80;52.70;;;;;;4956291;28;20131;-76
2022/03/17 07:11:31;;;;;;;59.33;37.03;;;11.90;52.60;;;;;;4956247;28;20027;-75
2022/03/17 07:13:56;;;;;;;61.13;34.90;;;12.00;52.60;;;;;;4965279;28;20030;-75
2022/03/17 07:16:22;;;;;;;54.20;35.97;;;12.00;52.30;;;;;;4974364;28;20027;-75
2022/03/17 07:18:49;;;;;;;50.30;32.83;;;12.00;52.20;;;;;;4966834;28;20082;-75
2022/03/17 07:21:15;;;;;;;53.42;32.17;;;12.10;52.20;;;;;;4970410;28;20076;-75
2022/03/17 07:23:42;;;;;;;64.05;36.75;;;12.10;52.00;;;;;;4963439;28;20030;-75
2022/03/17 07:26:07;;;;;;;52.72;34.47;;;12.20;51.80;;;;;;4955893;28;20027;-75
2022/03/17 07:28:33;;;;;;;52.38;33.05;;;12.30;52.00;;;;;;4954873;28;20031;-75
2022/03/17 07:30:59;;;;;;;47.28;30.38;;;12.40;51.80;;;;;;4955697;28;20370;-75
2022/03/17 07:33:25;;;;;;;47.78;28.92;;;12.50;51.50;;;;;;4955591;28;20046;-75
2022/03/17 07:35:51;;;;;;;39.40;24.73;;;12.60;50.90;;;;;;4954667;29;20027;-75
2022/03/17 07:38:16;;;;;;;41.55;23.77;;;12.70;50.20;;;;;;4954832;28;20031;-75
2022/03/17 07:40:43;;;;;;;38.67;24.55;;;12.80;50.20;;;;;;4955241;28;20504;-75
2022/03/17 07:43:09;;;;;;;40.50;25.85;;;12.80;49.70;;;;;;4955443;28;20162;-76
2022/03/17 07:45:34;;;;;;;39.42;23.60;;;12.90;49.10;;;;;;4955156;29;20484;-75
2022/03/17 07:48:00;;;;;;;35.58;22.85;;;13.00;49.00;;;;;;4953411;28;20413;-76
2022/03/17 07:50:26;;;;;;;36.20;22.92;;;13.10;49.10;;;;;;4955490;29;20473;-76
2022/03/17 07:52:52;;;;;;;33.90;21.67;;;13.20;49.00;;;;;;4955410;28;20039;-76
2022/03/17 07:55:18;;;;;;;33.40;20.88;;;13.30;48.40;;;;;;4958125;28;20023;-75
2022/03/17 07:57:45;;;;;;;43.50;23.90;;;13.40;48.00;;;;;;4963575;28;20083;-75
2022/03/17 08:00:11;;;;;;;42.17;24.33;;;13.40;47.30;;;;;;4970001;28;20389;-75
2022/03/17 08:02:38;;;;;;;41.25;26.85;;;13.50;47.60;;;;;;4952483;28;20019;-73
2022/03/17 08:05:04;;;;;;;46.30;28.50;;;13.60;47.90;;;;;;4958179;28;20028;-73
2022/03/17 08:07:30;;;;;;;41.13;26.52;;;13.70;47.60;;;;;;4953573;28;20449;-73
2022/03/17 08:09:57;;;;;;;51.40;30.77;;;13.80;47.60;;;;;;4943308;29;20036;-73
2022/03/17 08:12:26;;;;;;;46.85;27.17;;;13.90;47.40;;;;;;4954083;29;20096;-74
2022/03/17 08:14:53;;;;;;;42.97;28.50;;;14.00;47.40;;;;;;4954704;28;20031;-76
2022/03/17 08:17:19;;;;;;;50.97;31.95;;;14.10;47.30;;;;;;4954022;28;20024;-74
2022/03/17 08:19:45;;;;;;;45.97;30.10;;;14.20;47.20;;;;;;4954912;28;20110;-74
2022/03/17 08:22:11;;;;;;;66.95;36.22;;;14.30;47.20;;;;;;4953694;28;20047;-74
2022/03/17 08:24:37;;;;;;;59.90;32.33;;;14.30;46.70;;;;;;4954580;28;20481;-74
2022/03/17 08:27:03;;;;;;;49.20;29.70;;;14.40;47.00;;;;;;4954776;28;20027;-74
2022/03/17 08:29:30;;;;;;;46.05;30.23;;;14.50;47.10;;;;;;4948461;28;20030;-74
2022/03/17 08:31:56;;;;;;;47.30;31.45;;;14.50;47.00;;;;;;4964366;28;20089;-74
2022/03/17 08:34:22;;;;;;;52.13;31.50;;;14.70;47.00;;;;;;4981415;28;20026;-74
2022/03/17 08:36:54;;;;;;;46.15;31.17;;;14.70;46.50;;;;;;4954604;29;20038;-75
2022/03/17 08:39:20;;;;;;;43.63;27.60;;;14.80;46.20;;;;;;4954159;29;20028;-74
2022/03/17 08:41:46;;;;;;;45.60;28.23;;;14.80;46.00;;;;;;4954789;28;20466;-75
2022/03/17 08:44:12;;;;;;;41.58;28.63;;;14.90;46.10;;;;;;4969559;28;20110;-75
2022/03/17 08:49:23;;;;;;;;;;;15.00;45.70;;;;;;4954405;28;20042;-75
2022/03/17 08:52:02;;;;;;;43.67;27.48;;;15.10;47.10;;;;;;4958035;28;20276;-75
2022/03/17 08:54:29;;;;;;;47.03;27.00;;;15.20;45.20;;;;;;4958665;28;20478;-75
2022/03/17 08:56:59;;;;;;;40.45;26.55;;;15.30;45.50;;;;;;4943132;29;20446;-75
2022/03/17 08:59:32;;;;;;;37.53;25.42;;;15.40;45.20;;;;;;4939479;29;20127;-75
2022/03/17 09:02:03;;;;;;;41.97;26.77;;;15.40;45.10;;;;;;4961275;28;20030;-75
2022/03/17 09:04:29;;;;;;;45.17;27.65;;;15.60;44.80;;;;;;4985334;28;20027;-75
2022/03/17 09:06:59;;;;;;;47.50;27.77;;;15.70;44.40;;;;;;4968153;28;20039;-75
2022/03/17 09:09:29;;;;;;;50.03;30.40;;;15.70;44.30;;;;;;4973241;28;20047;-74
2022/03/17 09:11:55;;;;;;;41.58;26.38;;;15.80;43.60;;;;;;4958659;28;20043;-75
2022/03/17 09:14:22;;;;;;;46.13;27.08;;;15.90;44.00;;;;;;4958448;28;20079;-74
2022/03/17 09:16:48;;;;;;;37.30;25.00;;;16.00;43.90;;;;;;4958408;29;20478;-75
2022/03/17 09:19:14;;;;;;;39.30;26.02;;;16.10;43.80;;;;;;4952499;29;20362;-75
2022/03/17 09:21:40;;;;;;;39.25;24.42;;;16.10;43.90;;;;;;4957073;28;20473;-75
2022/03/17 09:24:06;;;;;;;38.00;24.90;;;16.20;43.70;;;;;;4958037;28;20058;-75
2022/03/17 09:26:32;;;;;;;40.33;24.77;;;16.30;43.40;;;;;;4958223;28;20144;-75
2022/03/17 09:28:58;;;;;;;38.47;25.08;;;16.40;43.20;;;;;;4958005;28;20031;-75
2022/03/17 09:31:24;;;;;;;41.28;24.63;;;16.50;42.90;;;;;;4958040;28;20027;-75
2022/03/17 09:33:50;;;;;;;40.83;27.60;;;16.60;42.70;;;;;;4957810;28;20042;-75
2022/03/17 09:36:16;;;;;;;39.90;25.17;;;16.60;42.30;;;;;;4957959;29;20027;-76
2022/03/17 09:38:43;;;;;;;31.65;21.65;;;16.70;42.10;;;;;;4972867;28;20484;-75
2022/03/17 09:41:25;;;;;;;33.55;20.55;;;16.80;42.00;;;;;;4957948;28;20034;-75
2022/03/17 09:43:52;;;;;;;33.17;19.42;;;16.90;41.60;;;;;;4972805;28;20031;-75
2022/03/17 09:46:21;;;;;;;28.13;19.80;;;17.00;41.60;;;;;;4972639;28;20028;-75
2022/03/17 09:48:52;;;;;;;35.90;20.40;;;17.00;41.00;;;;;;4956274;28;20027;-75
2022/03/17 09:51:21;;;;;;;31.60;19.60;;;17.10;40.40;;;;;;4957759;28;20027;-75
2022/03/17 09:53:47;;;;;;;30.65;20.73;;;17.20;40.60;;;;;;4957796;28;20034;-75
2022/03/17 09:56:13;;;;;;;31.85;19.42;;;17.30;40.30;;;;;;4957652;28;20466;-75
2022/03/17 09:58:40;;;;;;;27.83;18.38;;;17.40;39.80;;;;;;4957082;28;20058;-75
2022/03/17 10:01:07;;;;;;;29.65;19.50;;;17.40;39.90;;;;;;4955931;28;20027;-75
2022/03/17 10:03:34;;;;;;;27.73;17.50;;;17.50;39.40;;;;;;4957534;28;20438;-75
2022/03/17 10:06:06;;;;;;;30.48;17.75;;;17.50;39.80;;;;;;4956613;28;20055;-75
2022/03/17 10:08:33;;;;;;;28.17;18.25;;;17.60;39.20;;;;;;4971869;28;20393;-75
2022/03/17 10:10:59;;;;;;;29.30;20.70;;;17.70;39.40;;;;;;4971743;28;20466;-75
2022/03/17 10:13:26;;;;;;;33.05;21.85;;;17.70;39.30;;;;;;4956593;28;20023;-75
2022/03/17 10:16:10;;;;;;;27.15;18.80;;;17.70;38.20;;;;;;4956914;28;20110;-75
2022/03/17 10:18:37;;;;;;;27.55;18.92;;;17.80;38.80;;;;;;4955498;29;20070;-75
2022/03/17 10:21:11;;;;;;;28.45;17.63;;;17.80;38.50;;;;;;4957127;28;20404;-75
2022/03/17 10:23:48;;;;;;;25.50;17.70;;;17.90;38.40;;;;;;4971636;28;20504;-74
2022/03/17 10:26:49;;;;;;;21.83;15.40;;;18.00;37.90;;;;;;4938651;29;20192;-74
2022/03/17 10:29:19;;;;;;;29.45;14.80;;;18.10;37.20;;;;;;4950111;29;20477;-74
2022/03/17 10:32:05;;;;;;;24.30;14.20;;;18.20;37.40;;;;;;4956689;28;20027;-74
2022/03/17 10:34:47;;;;;;;25.20;13.77;;;18.30;36.30;;;;;;4955506;28;20031;-74
2022/03/17 10:37:18;;;;;;;21.95;13.55;;;18.40;35.80;;;;;;4956488;28;20038;-74
2022/03/17 10:39:46;;;;;;;19.40;13.30;;;18.50;35.30;;;;;;4937780;29;20030;-74
2022/03/17 10:42:17;;;;;;;20.17;13.57;;;18.50;35.80;;;;;;4937642;29;20019;-75
2022/03/17 10:44:58;;;;;;;21.23;14.65;;;18.70;35.60;;;;;;4936498;29;20024;-74
2022/03/17 10:47:27;;;;;;;18.83;13.00;;;18.70;34.90;;;;;;4937899;29;20020;-74
2022/03/17 10:50:20;;;;;;;22.42;11.68;;;18.80;34.30;;;;;;4939510;29;20027;-74
2022/03/17 10:52:58;;;;;;;18.50;11.30;;;18.90;34.30;;;;;;4956215;29;20397;-74
2022/03/17 10:55:30;;;;;;;17.85;11.60;;;19.00;33.40;;;;;;4956493;28;20023;-74
2022/03/17 10:58:11;;;;;;;17.90;12.20;;;19.10;32.80;;;;;;4956420;29;20067;-74
2022/03/17 11:00:51;;;;;;;20.13;13.10;;;19.20;32.50;;;;;;4956589;28;20019;-74
2022/03/17 11:03:19;;;;;;;18.98;12.20;;;19.20;31.90;;;;;;4956413;28;20444;-74
2022/03/17 11:05:45;;;;;;;19.30;12.77;;;19.30;32.00;;;;;;4956403;29;20516;-74
2022/03/17 11:08:11;;;;;;;18.73;11.52;;;19.30;31.50;;;;;;4956373;29;20023;-74
2022/03/17 11:10:39;;;;;;;21.42;11.50;;;19.40;31.20;;;;;;4956285;29;20102;-74
2022/03/17 11:13:12;;;;;;;17.30;11.65;;;19.40;31.70;;;;;;4955540;28;20031;-74
2022/03/17 11:15:41;;;;;;;18.73;11.38;;;19.50;31.60;;;;;;4956187;28;20032;-74
2022/03/17 11:18:12;;;;;;;22.33;11.93;;;19.60;31.70;;;;;;4956236;28;20030;-74
2022/03/17 11:20:38;;;;;;;16.15;11.60;;;19.60;31.50;;;;;;4954933;29;20030;-74
2022/03/17 11:23:15;;;;;;;16.88;11.85;;;19.70;31.10;;;;;;4970895;28;20436;-74
2022/03/17 11:25:55;;;;;;;14.68;10.82;;;19.80;31.10;;;;;;4956139;28;20473;-75
2022/03/17 11:28:41;;;;;;;16.90;10.93;;;19.90;31.80;;;;;;4956282;29;20050;-74
2022/03/17 11:31:11;;;;;;;15.63;10.57;;;20.00;30.70;;;;;;4956409;29;20416;-74
2022/03/17 11:33:39;;;;;;;15.82;10.15;;;20.10;29.80;;;;;;4956010;28;20027;-74
2022/03/17 11:36:08;;;;;;;15.95;9.82;;;20.10;30.00;;;;;;4955871;28;20058;-74
2022/03/17 11:38:38;;;;;;;21.15;10.52;;;20.20;29.30;;;;;;4955834;29;20023;-74
2022/03/17 11:41:17;;;;;;;18.15;11.40;;;20.20;29.80;;;;;;4955816;29;20074;-75
2022/03/17 11:43:46;;;;;;;18.48;10.20;;;20.30;29.80;;;;;;4955732;29;20082;-75
2022/03/17 11:46:17;;;;;;;14.40;9.93;;;20.30;29.00;;;;;;4955751;29;20515;-75
2022/03/17 11:48:45;;;;;;;16.08;9.25;;;20.40;29.30;;;;;;4955587;28;20023;-75
2022/03/17 11:51:13;;;;;;;15.85;9.27;;;20.50;29.10;;;;;;4955634;28;20027;-75
2022/03/17 11:53:50;;;;;;;17.63;10.05;;;20.60;28.90;;;;;;4970313;28;20085;-73
2022/03/17 11:56:43;;;;;;;12.52;8.02;;;20.60;28.10;;;;;;4955535;28;20024;-75
2022/03/17 11:59:20;;;;;;;13.80;7.70;;;20.70;28.60;;;;;;4955312;28;20058;-75
2022/03/17 12:01:47;;;;;;;15.07;7.45;;;20.80;27.60;;;;;;4955445;28;20090;-75
2022/03/17 12:04:32;;;;;;;13.57;7.20;;;20.80;27.10;;;;;;4955223;28;20016;-75
2022/03/17 12:07:09;;;;;;;14.25;7.13;;;20.80;27.10;;;;;;4955339;28;20509;-75
2022/03/17 12:09:36;;;;;;;10.32;7.35;;;20.80;26.70;;;;;;4955330;28;20031;-75
2022/03/17 12:12:15;;;;;;;10.85;6.50;;;20.80;26.40;;;;;;4955272;28;20027;-75
2022/03/17 12:14:57;;;;;;;13.43;7.18;;;20.70;26.80;;;;;;4955245;28;20051;-75
2022/03/17 12:17:27;;;;;;;9.07;6.47;;;20.70;27.00;;;;;;4955295;28;20082;-75
2022/03/17 12:20:19;;;;;;;10.95;6.85;;;20.70;27.00;;;;;;4955203;28;20023;-75
2022/03/17 12:22:45;;;;;;;10.10;7.65;;;20.70;26.80;;;;;;4955147;28;20492;-75
2022/03/17 12:25:18;;;;;;;15.43;8.77;;;20.70;26.40;;;;;;4955075;28;20470;-75
2022/03/17 12:27:54;;;;;;;19.60;8.48;;;20.70;26.70;;;;;;4955018;29;20058;-75
2022/03/17 12:30:21;;;;;;;22.25;9.50;;;20.70;26.90;;;;;;4955097;28;20031;-75
2022/03/17 12:32:49;;;;;;;16.10;8.63;;;20.70;26.40;;;;;;4969737;28;20485;-75
2022/03/17 12:35:16;;;;;;;12.52;8.20;;;20.60;26.40;;;;;;4955086;28;20038;-75
2022/03/17 12:37:43;;;;;;;15.63;8.15;;;20.50;26.70;;;;;;4954908;28;20110;-75
2022/03/17 12:40:15;;;;;;;15.05;8.13;;;20.50;26.30;;;;;;4955083;28;20034;-75
2022/03/17 12:42:44;;;;;;;13.88;8.57;;;20.40;25.90;;;;;;4954862;28;20023;-75
2022/03/17 12:45:12;;;;;;;13.27;8.80;;;20.40;26.60;;;;;;4954820;28;20027;-75